Time;durP1;ratioP1;P1;durP2;ratioP2;P2;SDS_P1;SDS_P2;PMS_P1;PMS_P2;Temp;Humidity;BMP_temperature;BMP_pressure;BME280_temperature;BME280_humidity;BME280_pressure;Samples;Min_cycle;Max_cycle;Signal;HPM_P1;HPM_P2
2023/03/18 00:00:43;;;;;;;16.50;9.48;;;;;;;11.04;90.68;100763.94;4937026;28;20031;-90
2023/03/18 00:03:10;;;;;;;15.30;8.52;;;;;;;11.04;90.99;100755.28;4938724;28;20122;-90
2023/03/18 00:05:36;;;;;;;18.50;9.13;;;;;;;11.05;89.20;100755.22;4954370;28;20382;-90
2023/03/18 00:08:05;;;;;;;15.60;9.35;;;;;;;11.15;89.67;100766.22;4954884;28;20475;-90
2023/03/18 00:10:34;;;;;;;16.33;9.02;;;;;;;11.12;90.81;100753.34;4936865;28;20759;-90
2023/03/18 00:13:00;;;;;;;14.82;8.25;;;;;;;11.07;89.49;100735.28;4937050;28;20928;-90
2023/03/18 00:15:25;;;;;;;17.15;8.93;;;;;;;11.03;91.50;100732.84;4935191;28;20032;-91
2023/03/18 00:17:51;;;;;;;18.08;9.48;;;;;;;11.05;89.87;100741.44;4938211;28;20049;-91
2023/03/18 00:20:27;;;;;;;16.70;8.77;;;;;;;11.03;91.31;100740.63;4937576;28;20035;-91
2023/03/18 00:22:53;;;;;;;18.25;9.20;;;;;;;11.11;90.49;100758.56;4937508;28;20032;-91
2023/03/18 00:25:19;;;;;;;15.73;8.68;;;;;;;10.99;90.43;100744.16;4952605;28;20041;-91
2023/03/18 00:27:44;;;;;;;14.30;8.65;;;;;;;10.98;89.58;100748.53;4953199;28;20169;-90
2023/03/18 00:30:11;;;;;;;16.75;9.30;;;;;;;10.89;92.47;100737.53;4937890;28;20050;-92
2023/03/18 00:32:37;;;;;;;14.40;8.52;;;;;;;10.93;91.12;100752.13;4940420;28;20049;-92
2023/03/18 00:35:04;;;;;;;17.15;9.23;;;;;;;10.83;90.85;100741.16;4938016;29;20457;-92
2023/03/18 00:37:32;;;;;;;15.93;9.05;;;;;;;10.84;91.12;100747.19;4940989;28;20019;-92
2023/03/18 00:40:16;;;;;;;16.13;8.45;;;;;;;10.90;92.45;100779.00;4940419;28;20027;-93
2023/03/18 00:42:46;;;;;;;14.57;9.00;;;;;;;10.83;91.98;100771.41;4938295;28;20665;-92
2023/03/18 00:45:14;;;;;;;20.23;9.68;;;;;;;10.79;92.14;100764.59;4941678;28;20023;-92
2023/03/18 00:47:41;;;;;;;18.42;9.55;;;;;;;10.89;91.55;100779.88;4936948;28;20035;-93
2023/03/18 00:50:09;;;;;;;17.75;9.50;;;;;;;10.83;93.87;100768.81;4937252;28;20023;-93
2023/03/18 00:52:35;;;;;;;16.05;9.40;;;;;;;10.91;92.04;100774.66;4939980;28;20400;-93
2023/03/18 00:55:00;;;;;;;17.88;10.07;;;;;;;10.95;93.90;100782.31;4939998;28;20028;-93
2023/03/18 00:57:28;;;;;;;16.67;9.85;;;;;;;10.97;92.75;100790.91;4936508;28;20066;-92
2023/03/18 00:59:53;;;;;;;17.35;9.60;;;;;;;10.83;94.50;100767.09;4938720;28;20113;-92
2023/03/18 01:02:19;;;;;;;18.90;9.48;;;;;;;10.89;93.69;100785.06;4939462;28;20117;-92
2023/03/18 01:04:45;;;;;;;18.15;10.07;;;;;;;10.88;93.52;100774.72;4940818;29;20031;-93
2023/03/18 01:07:12;;;;;;;18.50;9.85;;;;;;;10.89;93.04;100779.88;4952362;28;20033;-93
2023/03/18 01:09:39;;;;;;;19.23;9.70;;;;;;;11.01;95.36;100791.69;4940392;28;20123;-92
2023/03/18 01:12:07;;;;;;;18.25;9.90;;;;;;;10.98;92.08;100792.63;4939741;28;20019;-92
2023/03/18 01:14:33;;;;;;;17.63;9.70;;;;;;;10.91;93.56;100764.28;4936345;28;20035;-92
2023/03/18 01:16:59;;;;;;;17.60;9.70;;;;;;;11.01;92.19;100783.91;4939144;28;20039;-92
2023/03/18 01:19:25;;;;;;;21.90;10.35;;;;;;;10.93;91.65;100770.28;4945191;28;20082;-93
2023/03/18 01:21:51;;;;;;;17.83;10.20;;;;;;;11.07;91.65;100791.50;4957112;28;20121;-93
2023/03/18 01:24:22;;;;;;;17.80;9.65;;;;;;;10.98;92.06;100777.06;4957265;28;20141;-93
2023/03/18 01:26:48;;;;;;;17.85;9.00;;;;;;;11.01;93.05;100776.97;4940634;28;20024;-93
2023/03/18 01:29:13;;;;;;;20.60;10.18;;;;;;;10.94;92.22;100769.38;4957294;28;20474;-92
2023/03/18 01:31:39;;;;;;;18.15;9.57;;;;;;;11.02;92.44;100780.41;4956349;28;20492;-92
2023/03/18 01:34:04;;;;;;;16.65;9.93;;;;;;;11.04;92.57;100776.91;4942470;28;20160;-92
2023/03/18 01:36:30;;;;;;;16.52;9.43;;;;;;;10.93;93.00;100763.34;4944195;29;20059;-92
2023/03/18 01:38:56;;;;;;;17.52;10.05;;;;;;;11.02;92.64;100777.81;4959092;28;20023;-93
2023/03/18 01:41:24;;;;;;;17.52;10.05;;;;;;;10.96;94.36;100765.88;4941413;28;20107;-93
2023/03/18 01:43:50;;;;;;;18.42;10.10;;;;;;;10.93;94.80;100778.91;4959011;28;20027;-92
2023/03/18 01:46:32;;;;;;;17.80;10.13;;;;;;;10.90;95.65;100765.19;4940226;28;20451;-92
2023/03/18 01:48:59;;;;;;;19.83;9.90;;;;;;;11.03;96.40;100795.94;4955711;28;20087;-92
2023/03/18 01:51:25;;;;;;;19.40;10.05;;;;;;;10.93;98.55;100771.13;4941608;28;20133;-92
2023/03/18 01:53:52;;;;;;;21.38;10.63;;;;;;;10.93;99.51;100778.06;4942963;28;20059;-92
2023/03/18 01:56:19;;;;;;;21.27;10.82;;;;;;;10.82;100.00;100772.31;4944728;28;20044;-92
2023/03/18 01:58:49;;;;;;;19.90;10.77;;;;;;;10.85;100.00;100786.03;4941034;28;20455;-92
2023/03/18 02:01:29;;;;;;;21.30;10.35;;;;;;;10.73;100.00;100775.13;4940480;28;20802;-93
2023/03/18 02:03:56;;;;;;;21.20;11.13;;;;;;;10.66;100.00;100758.88;4955718;28;20030;-92
2023/03/18 02:06:22;;;;;;;18.73;10.80;;;;;;;10.73;100.00;100788.94;4941057;28;20058;-93
2023/03/18 02:08:48;;;;;;;20.88;10.48;;;;;;;10.64;100.00;100776.22;4941580;28;20038;-92
2023/03/18 02:11:14;;;;;;;25.38;11.82;;;;;;;10.65;100.00;100777.91;4954603;28;20038;-93
2023/03/18 02:13:42;;;;;;;25.17;11.75;;;;;;;10.59;100.00;100778.06;4938513;28;20031;-92
2023/03/18 02:16:44;;;;;;;21.80;11.35;;;;;;;10.53;100.00;100773.03;4943052;29;20023;-92
2023/03/18 02:19:46;;;;;;;20.38;11.13;;;;;;;10.66;100.00;100792.56;4940107;28;20024;-91
2023/03/18 02:22:31;;;;;;;22.15;11.45;;;;;;;10.65;100.00;100804.69;4941500;29;20059;-90
2023/03/18 02:25:06;;;;;;;22.55;11.70;;;;;;;10.65;100.00;100791.72;4955618;28;20047;-91
2023/03/18 02:27:36;;;;;;;20.60;12.05;;;;;;;10.64;100.00;100792.59;4940176;28;20110;-91
2023/03/18 02:30:13;;;;;;;24.55;12.05;;;;;;;10.58;100.00;100777.19;4953326;28;20478;-91
2023/03/18 02:32:40;;;;;;;28.48;12.63;;;;;;;10.55;100.00;100785.06;4940363;28;20062;-91
2023/03/18 02:35:08;;;;;;;26.90;12.40;;;;;;;10.57;100.00;100783.31;4941536;28;20031;-92
2023/03/18 02:37:33;;;;;;;27.65;12.02;;;;;;;10.65;100.00;100801.22;4940787;28;20122;-90
2023/03/18 02:40:18;;;;;;;21.92;12.73;;;;;;;10.55;100.00;100797.19;4944010;28;20106;-91
2023/03/18 02:42:44;;;;;;;25.88;12.93;;;;;;;10.46;100.00;100793.06;4941640;28;20648;-91
2023/03/18 02:45:40;;;;;;;25.05;13.45;;;;;;;10.57;100.00;100808.38;4958417;28;20027;-91
2023/03/18 02:48:07;;;;;;;25.85;12.98;;;;;;;10.37;100.00;100797.63;4926178;28;20050;-91
2023/03/18 02:50:41;;;;;;;26.70;13.23;;;;;;;10.45;100.00;100809.50;4939525;28;20563;-91
2023/03/18 02:53:10;;;;;;;28.50;13.65;;;;;;;10.40;100.00;100813.09;4938060;28;20043;-91
2023/03/18 02:55:37;;;;;;;27.80;14.00;;;;;;;10.37;100.00;100815.75;4955571;28;20027;-91
2023/03/18 02:58:06;;;;;;;24.45;13.10;;;;;;;10.37;100.00;100818.34;4942477;28;20552;-91
2023/03/18 03:00:32;;;;;;;28.92;13.68;;;;;;;10.28;100.00;100809.91;4957343;28;20587;-92
2023/03/18 03:02:57;;;;;;;26.63;13.75;;;;;;;10.29;100.00;100805.56;4945125;28;20129;-92
2023/03/18 03:05:23;;;;;;;26.48;13.90;;;;;;;10.32;100.00;100812.41;4957107;28;20629;-93
2023/03/18 03:07:48;;;;;;;28.20;14.07;;;;;;;10.41;100.00;100836.38;4941002;28;20034;-93
2023/03/18 03:10:14;;;;;;;24.50;13.63;;;;;;;10.29;100.00;100819.38;4940228;28;20031;-93
2023/03/18 03:12:39;;;;;;;29.88;14.60;;;;;;;10.32;100.00;100821.03;4955370;28;20034;-93
2023/03/18 03:15:07;;;;;;;30.63;14.20;;;;;;;10.39;100.00;100839.88;4956570;28;20070;-93
2023/03/18 03:17:32;;;;;;;32.42;15.43;;;;;;;10.31;100.00;100827.09;4942704;28;20037;-92
2023/03/18 03:19:58;;;;;;;28.40;14.38;;;;;;;10.40;100.00;100837.25;4943522;28;20019;-93
2023/03/18 03:22:26;;;;;;;26.15;13.93;;;;;;;10.33;100.00;100840.03;4938840;28;20031;-93
2023/03/18 03:24:52;;;;;;;29.45;14.75;;;;;;;10.36;100.00;100845.16;4939729;28;20094;-92
2023/03/18 03:27:18;;;;;;;28.15;13.82;;;;;;;10.41;100.00;100858.84;4955649;28;20039;-93
2023/03/18 03:29:44;;;;;;;34.47;15.82;;;;;;;10.40;100.00;100851.94;4950548;28;20023;-93
2023/03/18 03:32:10;;;;;;;27.42;15.45;;;;;;;10.38;100.00;100845.94;4939112;29;20551;-93
2023/03/18 03:34:36;;;;;;;29.63;14.63;;;;;;;10.39;100.00;100851.09;4957536;28;20497;-93
2023/03/18 03:37:01;;;;;;;28.33;14.63;;;;;;;10.37;100.00;100845.13;4954828;28;20507;-92
2023/03/18 03:39:27;;;;;;;30.42;15.30;;;;;;;10.36;100.00;100850.34;4955719;28;21429;-91
2023/03/18 03:41:52;;;;;;;28.95;15.10;;;;;;;10.39;100.00;100852.84;4939754;28;20610;-91
2023/03/18 03:44:19;;;;;;;32.70;15.75;;;;;;;10.35;100.00;100848.63;4940616;28;20050;-91
2023/03/18 03:46:44;;;;;;;29.98;15.80;;;;;;;10.27;100.00;100834.09;4953649;28;20020;-90
2023/03/18 03:49:10;;;;;;;32.00;14.90;;;;;;;10.30;100.00;100843.56;4940720;28;20027;-91
2023/03/18 03:51:36;;;;;;;25.98;14.48;;;;;;;10.26;100.00;100845.34;4937383;28;20436;-91
2023/03/18 03:54:02;;;;;;;28.17;14.88;;;;;;;10.36;100.00;100860.69;4939143;28;20035;-91
2023/03/18 03:56:28;;;;;;;29.02;15.43;;;;;;;10.36;100.00;100863.28;4940139;29;20123;-92
2023/03/18 03:58:53;;;;;;;32.03;16.92;;;;;;;10.25;100.00;100846.22;4939833;28;20072;-90
2023/03/18 04:01:19;;;;;;;27.38;14.93;;;;;;;10.28;100.00;100850.50;4939482;28;20061;-90
2023/03/18 04:03:44;;;;;;;29.35;15.27;;;;;;;10.25;100.00;100843.63;4940932;28;20026;-91
2023/03/18 04:06:10;;;;;;;28.10;15.55;;;;;;;10.18;100.00;100841.22;4939908;28;20546;-92
2023/03/18 04:08:35;;;;;;;30.02;15.43;;;;;;;10.27;100.00;100859.16;4939224;28;20036;-90
2023/03/18 04:11:02;;;;;;;26.27;14.68;;;;;;;10.27;100.00;100860.00;4939231;28;20061;-91
2023/03/18 04:13:30;;;;;;;31.80;16.13;;;;;;;10.21;100.00;100851.53;4939073;28;20035;-91
2023/03/18 04:15:55;;;;;;;27.40;14.98;;;;;;;10.21;100.00;100851.53;4953520;28;21011;-90
2023/03/18 04:18:21;;;;;;;29.67;15.93;;;;;;;10.29;100.00;100855.66;4940176;28;20661;-92
2023/03/18 04:20:47;;;;;;;31.75;15.18;;;;;;;10.27;100.00;100862.59;4954532;28;20034;-91
2023/03/18 04:23:13;;;;;;;30.98;15.48;;;;;;;10.27;100.00;100862.59;4939397;28;20031;-91
2023/03/18 04:25:38;;;;;;;33.40;15.90;;;;;;;10.23;100.00;100860.13;4938610;28;20038;-91
2023/03/18 04:28:04;;;;;;;29.83;16.63;;;;;;;10.23;100.00;100858.38;4939432;28;20646;-91
2023/03/18 04:30:30;;;;;;;28.90;16.50;;;;;;;10.21;100.00;100849.78;4952158;28;20032;-90
2023/03/18 04:32:56;;;;;;;32.45;16.02;;;;;;;10.21;100.00;100852.38;4953460;28;20043;-91
2023/03/18 04:35:22;;;;;;;30.92;16.13;;;;;;;10.28;100.00;100864.31;4938973;28;20055;-91
2023/03/18 04:37:51;;;;;;;31.98;16.35;;;;;;;10.20;100.00;100849.81;4938951;28;20495;-91
2023/03/18 04:40:17;;;;;;;34.70;16.55;;;;;;;10.25;100.00;100859.19;4937001;28;20114;-91
2023/03/18 04:42:44;;;;;;;30.15;15.55;;;;;;;10.20;100.00;100858.44;4938964;29;20108;-91
2023/03/18 04:45:10;;;;;;;31.30;16.10;;;;;;;10.21;100.00;100860.16;4937947;28;20045;-91
2023/03/18 04:47:37;;;;;;;28.77;15.50;;;;;;;10.31;100.00;100873.72;4939026;28;20787;-90
2023/03/18 04:50:03;;;;;;;29.85;15.20;;;;;;;10.16;100.00;100850.75;4936624;28;20484;-91
2023/03/18 04:52:29;;;;;;;29.23;15.07;;;;;;;10.20;100.00;100860.16;4953404;28;20488;-91
2023/03/18 04:54:55;;;;;;;32.83;16.58;;;;;;;10.16;100.00;100853.34;4939240;28;20082;-91
2023/03/18 04:57:20;;;;;;;30.27;16.45;;;;;;;10.15;100.00;100849.88;4939826;29;20039;-91
2023/03/18 04:59:46;;;;;;;29.58;16.50;;;;;;;10.29;100.00;100886.75;4936853;28;20102;-91
2023/03/18 05:02:12;;;;;;;30.13;16.30;;;;;;;10.24;100.00;100880.78;4939457;28;20043;-91
2023/03/18 05:04:38;;;;;;;29.83;15.98;;;;;;;10.18;100.00;100869.72;4938102;28;20023;-90
2023/03/18 05:07:03;;;;;;;29.58;16.05;;;;;;;10.26;100.00;100879.03;4939409;29;20027;-91
2023/03/18 05:09:29;;;;;;;31.17;16.90;;;;;;;10.25;100.00;100887.69;4938074;28;20030;-90
2023/03/18 05:11:54;;;;;;;29.67;15.95;;;;;;;10.23;100.00;100883.44;4940102;28;20019;-90
2023/03/18 05:14:20;;;;;;;32.17;16.80;;;;;;;10.20;100.00;100873.97;4949997;28;20031;-90
2023/03/18 05:16:45;;;;;;;29.73;15.93;;;;;;;10.33;100.00;100899.63;4937484;29;20507;-90
2023/03/18 05:19:11;;;;;;;27.90;16.55;;;;;;;10.30;100.00;100908.31;4937295;28;20023;-91
2023/03/18 05:21:36;;;;;;;29.60;15.88;;;;;;;10.29;100.00;100899.69;4938003;28;20036;-91
2023/03/18 05:24:03;;;;;;;32.80;16.52;;;;;;;10.22;100.00;100887.75;4936802;28;20024;-91
2023/03/18 05:26:28;;;;;;;31.42;16.33;;;;;;;10.21;100.00;100886.06;4940783;28;20114;-91
2023/03/18 05:28:54;;;;;;;30.30;16.02;;;;;;;10.29;100.00;100891.06;4938592;28;20031;-91
2023/03/18 05:31:20;;;;;;;30.17;16.10;;;;;;;10.24;100.00;100890.28;4938134;28;20039;-91
2023/03/18 05:33:46;;;;;;;34.35;17.25;;;;;;;10.24;100.00;100898.91;4935614;28;20043;-91
2023/03/18 05:36:13;;;;;;;31.88;16.83;;;;;;;10.22;100.00;100882.56;4939118;28;20035;-90
2023/03/18 05:38:39;;;;;;;32.33;16.90;;;;;;;10.32;100.00;100890.97;4936856;28;20043;-91
2023/03/18 05:41:05;;;;;;;29.50;16.33;;;;;;;10.18;100.00;100887.84;4951372;28;20380;-91
2023/03/18 05:43:30;;;;;;;30.23;16.27;;;;;;;10.13;100.00;100893.09;4938049;28;20509;-91
2023/03/18 05:45:56;;;;;;;33.63;16.75;;;;;;;10.02;100.00;100879.53;4937214;29;20087;-91
2023/03/18 05:48:22;;;;;;;30.00;15.60;;;;;;;10.02;100.00;100896.81;4939382;28;20054;-91
2023/03/18 05:50:48;;;;;;;30.85;15.05;;;;;;;9.80;100.00;100873.06;4934840;28;20035;-90
2023/03/18 05:53:15;;;;;;;27.35;14.73;;;;;;;9.75;100.00;100888.72;4950450;28;20023;-91
2023/03/18 05:55:42;;;;;;;26.77;14.45;;;;;;;9.64;100.00;100900.13;4937321;28;20030;-92
2023/03/18 05:58:07;;;;;;;23.73;14.07;;;;;;;9.52;100.00;100894.31;4939553;29;20035;-91
2023/03/18 06:00:34;;;;;;;25.80;14.25;;;;;;;9.58;100.00;100900.25;4937299;28;20027;-91
2023/03/18 06:03:00;;;;;;;26.75;15.10;;;;;;;9.66;100.00;100914.75;4937923;29;20615;-91
2023/03/18 06:05:27;;;;;;;28.25;14.73;;;;;;;9.69;100.00;100921.63;4945089;28;20447;-91
2023/03/18 06:07:55;;;;;;;28.10;15.40;;;;;;;9.71;100.00;100914.66;4942517;28;20035;-91
2023/03/18 06:10:23;;;;;;;31.20;15.40;;;;;;;9.88;100.00;100944.53;4941293;28;20110;-91
2023/03/18 06:12:50;;;;;;;28.45;15.40;;;;;;;9.85;100.00;100933.38;4956390;28;20566;-91
2023/03/18 06:15:16;;;;;;;31.60;15.88;;;;;;;9.83;100.00;100924.78;4940202;28;20069;-91
2023/03/18 06:17:42;;;;;;;32.92;16.40;;;;;;;9.86;100.00;100916.97;4941417;29;20448;-91
2023/03/18 06:20:10;;;;;;;30.17;15.85;;;;;;;9.93;100.00;100922.88;4956416;28;20027;-91
2023/03/18 06:22:35;;;;;;;26.08;14.73;;;;;;;9.98;100.00;100932.25;4940016;28;20039;-91
2023/03/18 06:25:03;;;;;;;29.02;16.08;;;;;;;10.03;100.00;100934.75;4942420;28;20043;-92
2023/03/18 06:27:29;;;;;;;30.20;15.85;;;;;;;9.96;100.00;100923.69;4941343;28;20030;-91
2023/03/18 06:29:55;;;;;;;30.63;15.45;;;;;;;10.08;100.00;100927.75;4940629;28;20046;-90
2023/03/18 06:32:23;;;;;;;29.30;15.52;;;;;;;10.20;100.00;100930.13;4940349;29;20066;-91
2023/03/18 06:34:49;;;;;;;27.05;15.48;;;;;;;10.25;100.00;100930.88;4939476;28;20023;-91
2023/03/18 06:37:15;;;;;;;27.52;14.77;;;;;;;10.62;100.00;100916.22;4939424;28;20035;-91
2023/03/18 06:39:40;;;;;;;27.63;15.13;;;;;;;11.59;100.00;100925.94;4940591;28;20388;-92
2023/03/18 06:42:06;;;;;;;25.85;14.90;;;;;;;12.12;100.00;100921.03;4939975;28;20015;-91
2023/03/18 06:44:31;;;;;;;28.80;16.05;;;;;;;12.74;100.00;100918.31;4940535;28;20055;-91
2023/03/18 06:46:57;;;;;;;28.40;14.63;;;;;;;13.48;100.00;100923.69;4939887;28;20035;-91
2023/03/18 06:49:22;;;;;;;27.88;14.35;;;;;;;13.78;100.00;100911.34;4940620;28;20027;-92
2023/03/18 06:51:48;;;;;;;22.50;13.45;;;;;;;13.95;98.39;100916.78;4940023;28;20055;-91
2023/03/18 06:54:14;;;;;;;23.70;13.50;;;;;;;14.26;96.86;100937.38;4939237;28;20054;-91
2023/03/18 06:56:43;;;;;;;21.67;13.27;;;;;;;14.14;95.65;100925.63;4941698;28;20031;-92
2023/03/18 06:59:09;;;;;;;21.35;12.90;;;;;;;14.98;96.93;100930.22;4938691;28;20027;-92
2023/03/18 07:01:35;;;;;;;19.90;12.70;;;;;;;16.48;89.86;100933.25;4940208;28;20036;-91
2023/03/18 07:04:07;;;;;;;19.80;12.40;;;;;;;17.31;85.34;100942.34;4955710;28;20388;-92
2023/03/18 07:06:32;;;;;;;19.92;12.07;;;;;;;17.10;84.01;100929.44;4941364;28;20046;-91
2023/03/18 07:08:58;;;;;;;20.30;12.15;;;;;;;17.11;82.22;100942.47;4939395;28;20027;-91
2023/03/18 07:11:24;;;;;;;22.23;12.27;;;;;;;17.60;82.15;100953.13;4939850;28;20086;-91
2023/03/18 07:13:51;;;;;;;19.80;11.90;;;;;;;17.49;78.04;100955.41;4953957;28;20031;-91
2023/03/18 07:16:17;;;;;;;21.02;12.02;;;;;;;16.79;78.26;100958.88;4939804;28;20043;-91
2023/03/18 07:18:43;;;;;;;18.77;11.77;;;;;;;15.88;80.64;100958.66;4954858;28;20066;-91
2023/03/18 07:21:12;;;;;;;19.00;11.82;;;;;;;15.09;84.98;100955.88;4943316;28;20603;-91
2023/03/18 07:23:39;;;;;;;19.08;11.68;;;;;;;14.46;87.66;100967.94;4939403;28;20042;-92
2023/03/18 07:26:05;;;;;;;19.92;11.43;;;;;;;13.92;89.90;100968.19;4940559;28;20476;-92
2023/03/18 07:28:31;;;;;;;18.13;11.27;;;;;;;13.55;92.60;100974.66;4955125;28;20087;-92
2023/03/18 07:30:59;;;;;;;19.73;11.90;;;;;;;13.33;94.43;100981.47;4937458;28;20121;-92
2023/03/18 07:33:27;;;;;;;20.00;12.10;;;;;;;13.02;96.42;100968.56;4954287;28;20889;-92
2023/03/18 07:35:52;;;;;;;22.67;12.98;;;;;;;12.89;97.71;100968.13;4955085;28;20055;-92
2023/03/18 07:38:18;;;;;;;22.02;12.75;;;;;;;12.89;97.61;100977.66;4939398;29;20066;-92
2023/03/18 07:40:47;;;;;;;24.60;13.35;;;;;;;12.92;99.14;100969.75;4938943;28;20041;-92
2023/03/18 07:43:12;;;;;;;22.60;12.98;;;;;;;13.07;98.43;100975.31;4938672;28;20023;-92
2023/03/18 07:45:38;;;;;;;25.45;13.23;;;;;;;13.38;97.92;100971.75;4937350;28;20376;-92
2023/03/18 07:48:04;;;;;;;25.02;13.55;;;;;;;14.13;96.13;100990.84;4942748;28;20045;-91
2023/03/18 07:50:30;;;;;;;21.55;13.15;;;;;;;15.08;91.98;100994.19;4939813;28;20035;-93
2023/03/18 07:52:55;;;;;;;24.52;12.07;;;;;;;15.54;86.12;100995.84;4939562;28;20502;-92
2023/03/18 07:55:24;;;;;;;19.48;12.43;;;;;;;15.82;87.20;100986.84;4951374;28;20126;-92
2023/03/18 07:57:50;;;;;;;20.17;12.13;;;;;;;16.16;85.93;100995.75;4936087;28;20877;-91
2023/03/18 08:00:16;;;;;;;20.65;11.50;;;;;;;16.36;80.26;100984.41;4940505;28;20102;-91
2023/03/18 08:02:41;;;;;;;19.13;11.65;;;;;;;16.18;82.23;100986.06;4940318;28;20031;-92
2023/03/18 08:05:07;;;;;;;20.70;11.43;;;;;;;16.00;81.49;101006.94;4943098;28;20042;-91
2023/03/18 08:07:34;;;;;;;18.35;11.45;;;;;;;15.63;82.43;100998.06;4939665;28;20027;-93
2023/03/18 08:10:05;;;;;;;18.40;11.13;;;;;;;15.32;83.99;100993.22;4940660;28;20032;-91
2023/03/18 08:12:30;;;;;;;18.98;11.75;;;;;;;15.71;84.81;100993.34;4953916;28;20633;-91
2023/03/18 08:14:56;;;;;;;19.88;11.80;;;;;;;16.41;82.46;101007.72;4939918;28;20027;-91
2023/03/18 08:17:22;;;;;;;17.15;10.82;;;;;;;16.84;77.97;100996.16;4937417;28;20042;-92
2023/03/18 08:19:47;;;;;;;18.50;11.35;;;;;;;17.14;78.08;100985.97;4938584;28;20096;-92
2023/03/18 08:22:14;;;;;;;17.23;10.90;;;;;;;17.38;77.64;100976.94;4937786;28;20035;-92
2023/03/18 08:24:39;;;;;;;16.58;10.35;;;;;;;17.90;74.40;100997.91;4939280;28;20031;-90
2023/03/18 08:27:06;;;;;;;17.30;10.45;;;;;;;18.66;73.00;100978.97;4938058;28;20028;-92
2023/03/18 08:29:32;;;;;;;15.20;10.10;;;;;;;18.92;70.90;100975.75;4938220;28;21069;-92
2023/03/18 08:32:07;;;;;;;15.85;10.00;;;;;;;19.39;72.07;100972.19;4952545;28;20046;-94
2023/03/18 08:34:32;;;;;;;15.55;10.32;;;;;;;19.83;66.74;100993.28;4938464;28;20023;-93
2023/03/18 08:36:58;;;;;;;14.80;9.23;;;;;;;19.91;65.12;100980.50;4953628;28;20049;-92
2023/03/18 08:39:23;;;;;;;14.20;9.18;;;;;;;19.93;63.83;100985.66;4939118;29;20225;-92
2023/03/18 08:41:49;;;;;;;13.50;9.02;;;;;;;20.00;63.43;100985.19;4939448;29;20547;-92
2023/03/18 08:44:15;;;;;;;12.15;8.90;;;;;;;20.13;64.29;100984.47;4937960;29;20395;-92
2023/03/18 08:46:40;;;;;;;17.13;9.48;;;;;;;20.49;63.65;100990.97;4939359;29;20043;-92
2023/03/18 08:49:06;;;;;;;13.05;8.52;;;;;;;20.92;64.27;101003.22;4938914;29;20058;-92
2023/03/18 08:51:34;;;;;;;12.30;8.50;;;;;;;20.80;61.90;100994.31;4952379;28;20027;-93
2023/03/18 08:53:59;;;;;;;12.95;8.55;;;;;;;20.58;62.93;101000.09;4937532;29;20056;-93
2023/03/18 08:56:26;;;;;;;14.07;8.73;;;;;;;20.48;60.97;101006.84;4938632;29;20120;-93
2023/03/18 08:58:51;;;;;;;11.45;7.72;;;;;;;20.26;61.11;101014.38;4939695;29;20030;-92
2023/03/18 09:01:21;;;;;;;13.02;8.00;;;;;;;19.71;62.99;100994.84;4953444;28;20031;-91
2023/03/18 09:03:47;;;;;;;11.77;7.75;;;;;;;19.57;64.63;101012.38;4954240;28;20028;-91
2023/03/18 09:06:16;;;;;;;13.77;7.80;;;;;;;19.57;63.59;100994.81;4937505;29;20042;-90
2023/03/18 09:08:43;;;;;;;13.95;9.05;;;;;;;19.51;63.38;101012.75;4939149;29;20020;-91
2023/03/18 09:11:09;;;;;;;13.73;8.63;;;;;;;19.09;65.21;101001.09;4940993;29;20192;-91
2023/03/18 09:13:35;;;;;;;11.88;8.52;;;;;;;18.58;64.68;100996.91;4953201;28;20075;-91
2023/03/18 09:16:01;;;;;;;14.15;8.55;;;;;;;18.26;68.65;101011.75;4938246;29;20059;-91
2023/03/18 09:18:27;;;;;;;12.10;8.23;;;;;;;18.00;70.06;101013.13;4940170;29;20444;-91
2023/03/18 09:20:52;;;;;;;14.80;9.40;;;;;;;17.85;69.98;101010.41;4938402;28;20540;-91
2023/03/18 09:23:18;;;;;;;14.48;9.20;;;;;;;17.66;69.92;101005.28;4942576;29;20020;-91
2023/03/18 09:25:45;;;;;;;13.57;8.95;;;;;;;17.47;71.41;101007.09;4938770;29;20078;-91
2023/03/18 09:28:13;;;;;;;16.13;9.27;;;;;;;17.46;72.42;101013.25;4940179;29;20403;-91
2023/03/18 09:30:38;;;;;;;15.50;8.57;;;;;;;17.47;74.04;101014.94;4955294;28;20024;-91
2023/03/18 09:33:05;;;;;;;12.48;8.35;;;;;;;17.29;71.44;100999.19;4940824;29;20504;-91
2023/03/18 09:35:31;;;;;;;12.90;8.30;;;;;;;17.32;77.08;101016.53;4939710;29;20031;-91
2023/03/18 09:37:57;;;;;;;13.85;8.63;;;;;;;17.29;74.92;100999.19;4952947;28;20503;-91
2023/03/18 09:40:28;;;;;;;13.50;8.60;;;;;;;17.43;72.67;101021.25;4957354;28;20031;-91
2023/03/18 09:43:04;;;;;;;12.98;8.32;;;;;;;17.43;73.80;101010.75;4941858;29;20428;-91
2023/03/18 09:45:37;;;;;;;13.30;7.38;;;;;;;17.70;70.88;101033.03;4955407;28;20023;-91
2023/03/18 09:48:21;;;;;;;10.65;7.30;;;;;;;17.64;72.00;101012.34;4955114;28;20205;-91
2023/03/18 09:51:16;;;;;;;13.43;7.13;;;;;;;17.86;68.27;101026.09;4940824;29;20038;-92
2023/03/18 09:53:51;;;;;;;12.25;6.60;;;;;;;17.96;70.47;101019.44;4956336;28;20557;-91
2023/03/18 09:56:23;;;;;;;10.70;6.57;;;;;;;18.17;69.89;101026.19;4956428;28;20066;-92
2023/03/18 09:58:52;;;;;;;9.30;6.13;;;;;;;18.33;69.11;101028.00;4939542;28;20055;-92
2023/03/18 10:01:21;;;;;;;10.65;6.45;;;;;;;18.40;68.21;101034.63;4942568;29;20518;-92
2023/03/18 10:04:13;;;;;;;10.73;6.80;;;;;;;18.35;67.26;101010.41;4941504;29;20071;-92
2023/03/18 10:06:43;;;;;;;10.00;6.00;;;;;;;18.47;67.57;101028.97;4941096;29;20086;-92
2023/03/18 10:09:19;;;;;;;10.55;6.25;;;;;;;18.36;69.47;101012.09;4942168;29;20032;-92
2023/03/18 10:11:48;;;;;;;9.18;5.88;;;;;;;18.35;66.41;101013.03;4943297;28;20070;-92
2023/03/18 10:14:25;;;;;;;9.30;5.88;;;;;;;18.51;68.78;101022.63;4941921;29;20066;-92
2023/03/18 10:17:18;;;;;;;10.60;6.10;;;;;;;18.66;69.83;101015.75;4957671;28;20038;-92
2023/03/18 10:19:53;;;;;;;14.65;7.70;;;;;;;18.66;68.43;101001.75;4942299;29;21579;-91
2023/03/18 10:22:56;;;;;;;14.40;7.95;;;;;;;18.59;68.37;101021.41;4940701;28;20034;-91
2023/03/18 10:25:35;;;;;;;11.57;7.55;;;;;;;18.14;67.95;101008.00;4939386;29;20191;-91
2023/03/18 10:28:31;;;;;;;11.18;7.20;;;;;;;18.08;71.10;101029.28;4957699;28;20062;-92
2023/03/18 10:31:34;;;;;;;11.80;7.35;;;;;;;17.80;68.41;101007.19;4939360;29;20503;-92
2023/03/18 10:34:05;;;;;;;12.73;7.80;;;;;;;17.71;69.41;101024.22;4956204;28;20086;-91
2023/03/18 10:36:43;;;;;;;11.05;6.93;;;;;;;17.60;71.78;101008.19;4955771;28;20034;-92
2023/03/18 10:39:22;;;;;;;10.13;6.68;;;;;;;17.71;71.05;101013.75;4942152;29;20028;-92
2023/03/18 10:41:49;;;;;;;9.88;6.55;;;;;;;17.67;71.02;101005.16;4940962;29;20663;-91
2023/03/18 10:44:23;;;;;;;10.35;6.63;;;;;;;17.75;70.73;101007.41;4942287;29;20024;-91
2023/03/18 10:47:08;;;;;;;9.10;5.78;;;;;;;17.68;69.70;101003.41;4954385;28;20353;-92
2023/03/18 10:49:42;;;;;;;9.68;6.50;;;;;;;17.71;70.27;101024.22;4944092;28;20034;-90
2023/03/18 10:52:33;;;;;;;10.30;6.70;;;;;;;17.68;69.67;100995.53;4940912;29;20086;-91
2023/03/18 10:54:59;;;;;;;8.80;6.25;;;;;;;17.75;68.11;101017.91;4941476;29;20404;-92
2023/03/18 10:57:25;;;;;;;9.10;6.57;;;;;;;17.60;70.09;101002.94;4939358;29;20487;-91
2023/03/18 10:59:52;;;;;;;7.57;3.80;;;;;;;17.67;64.84;101002.56;4945888;29;20034;-93
2023/03/18 11:02:29;;;;;;;9.30;4.88;;;;;;;17.75;65.42;101017.91;4949143;29;20027;-93
2023/03/18 11:04:58;;;;;;;8.57;5.50;;;;;;;17.79;68.68;101011.59;4958844;28;20526;-93
2023/03/18 11:07:26;;;;;;;8.85;5.80;;;;;;;17.96;71.72;100993.19;4955679;28;20031;-94
2023/03/18 11:09:52;;;;;;;8.75;5.80;;;;;;;18.44;67.89;100996.78;4956365;28;20028;-93
2023/03/18 11:12:31;;;;;;;11.50;6.20;;;;;;;18.72;66.45;100999.66;4955879;28;20027;-94
2023/03/18 11:14:56;;;;;;;11.93;5.88;;;;;;;18.82;65.83;100990.34;4941477;29;20153;-94